Time;durP1;ratioP1;P1;durP2;ratioP2;P2;SDS_P1;SDS_P2;PMS_P1;PMS_P2;Temp;Humidity;BMP_temperature;BMP_pressure;BME280_temperature;BME280_humidity;BME280_pressure;Samples;Min_cycle;Max_cycle;Signal;HPM_P1;HPM_P2
2023/09/20 00:01:14;;;;;;;2.17;1.00;;;16.10;99.90;;;;;;5022213;28;20017;-81
2023/09/20 00:03:40;;;;;;;3.20;1.08;;;16.10;99.90;;;;;;5018833;28;20041;-84
2023/09/20 00:06:07;;;;;;;5.30;1.33;;;16.10;99.90;;;;;;5008307;28;20482;-82
2023/09/20 00:08:34;;;;;;;1.70;1.00;;;16.10;99.90;;;;;;4996406;28;20054;-79
2023/09/20 00:11:00;;;;;;;4.20;1.25;;;16.10;99.90;;;;;;5006020;28;20049;-81
2023/09/20 00:13:26;;;;;;;2.08;1.40;;;16.10;99.90;;;;;;5011154;28;20014;-81
2023/09/20 00:15:55;;;;;;;4.00;1.02;;;16.20;99.90;;;;;;5013961;28;20545;-81
2023/09/20 00:18:23;;;;;;;1.67;1.20;;;16.20;99.90;;;;;;5018567;28;20639;-81
2023/09/20 00:20:49;;;;;;;2.53;1.25;;;16.20;99.90;;;;;;5024767;28;20040;-82
2023/09/20 00:23:20;;;;;;;4.55;1.25;;;16.20;99.90;;;;;;5010022;28;20108;-84
2023/09/20 00:25:47;;;;;;;2.72;1.40;;;16.30;99.90;;;;;;5021041;28;20398;-82
2023/09/20 00:28:13;;;;;;;3.97;1.52;;;16.30;99.90;;;;;;5012085;28;20500;-83
2023/09/20 00:30:39;;;;;;;3.83;1.20;;;16.30;99.90;;;;;;5013710;28;20034;-85
2023/09/20 00:33:05;;;;;;;2.55;1.30;;;16.40;99.90;;;;;;5022117;28;20059;-82
2023/09/20 00:35:31;;;;;;;3.80;1.45;;;16.40;99.90;;;;;;5009551;28;20026;-82
2023/09/20 00:37:57;;;;;;;2.28;1.20;;;16.40;99.90;;;;;;5013060;28;20018;-83
2023/09/20 00:40:23;;;;;;;2.20;1.20;;;16.40;99.90;;;;;;5020008;28;20018;-83
2023/09/20 00:42:50;;;;;;;2.47;1.17;;;16.40;99.90;;;;;;5015788;28;20071;-81
2023/09/20 00:45:17;;;;;;;2.40;1.20;;;16.40;99.90;;;;;;5013884;28;20422;-83
2023/09/20 00:47:51;;;;;;;2.83;1.20;;;16.40;99.90;;;;;;5010774;28;20052;-81
2023/09/20 00:50:16;;;;;;;2.45;0.95;;;16.50;99.90;;;;;;5027774;28;20113;-80
2023/09/20 00:52:44;;;;;;;3.38;1.38;;;16.50;99.90;;;;;;5011076;28;20046;-80
2023/09/20 00:55:20;;;;;;;3.63;1.55;;;16.60;99.90;;;;;;5010803;28;20112;-82
2023/09/20 00:57:52;;;;;;;4.70;1.27;;;16.50;99.90;;;;;;5010972;28;20077;-82
2023/09/20 01:00:27;;;;;;;2.10;1.33;;;16.60;99.90;;;;;;5019625;28;20036;-82
2023/09/20 01:02:57;;;;;;;1.70;1.30;;;16.60;99.90;;;;;;5020345;28;20154;-81
2023/09/20 01:05:25;;;;;;;5.57;1.55;;;16.60;99.90;;;;;;5004681;28;20437;-84
2023/09/20 01:07:54;;;;;;;3.47;1.23;;;16.60;99.90;;;;;;5006127;28;20351;-83
2023/09/20 01:10:23;;;;;;;3.35;1.30;;;16.60;99.90;;;;;;5017612;28;20422;-83
2023/09/20 01:13:00;;;;;;;2.92;1.13;;;16.60;99.90;;;;;;5017969;28;20022;-81
2023/09/20 01:15:27;;;;;;;3.45;1.48;;;16.70;99.90;;;;;;5016208;28;20010;-82
2023/09/20 01:17:57;;;;;;;4.00;1.38;;;16.70;99.90;;;;;;5009960;28;20026;-81
2023/09/20 01:20:29;;;;;;;3.25;1.48;;;16.70;99.90;;;;;;5018580;28;20022;-84
2023/09/20 01:22:57;;;;;;;3.22;1.33;;;16.70;99.90;;;;;;5019051;28;20030;-83
2023/09/20 01:25:27;;;;;;;2.75;1.50;;;16.70;99.90;;;;;;5002290;28;20037;-81
2023/09/20 01:27:57;;;;;;;2.08;0.88;;;16.70;99.90;;;;;;5004115;28;20014;-82
2023/09/20 01:30:28;;;;;;;4.40;1.20;;;16.80;99.90;;;;;;5001406;28;20104;-79
2023/09/20 01:32:55;;;;;;;2.35;1.20;;;16.80;99.90;;;;;;5010303;28;20014;-82
2023/09/20 01:35:23;;;;;;;4.97;1.10;;;16.70;99.90;;;;;;4997548;28;20041;-80
2023/09/20 01:37:51;;;;;;;3.50;1.30;;;16.70;99.90;;;;;;5009425;28;20025;-80
2023/09/20 01:40:23;;;;;;;2.40;1.10;;;16.80;99.90;;;;;;5001441;28;20565;-80
2023/09/20 01:42:49;;;;;;;5.00;1.50;;;16.80;99.90;;;;;;4997860;28;20034;-82
2023/09/20 01:45:16;;;;;;;3.83;1.27;;;16.80;99.90;;;;;;4996894;28;20073;-80
2023/09/20 01:47:49;;;;;;;6.03;1.42;;;16.80;99.90;;;;;;5013015;28;20028;-81
2023/09/20 01:50:25;;;;;;;3.75;1.15;;;16.80;99.90;;;;;;5007655;28;20010;-80
2023/09/20 01:52:59;;;;;;;3.25;1.48;;;16.80;99.90;;;;;;5011821;28;20140;-84
2023/09/20 01:55:27;;;;;;;4.22;1.73;;;16.80;99.90;;;;;;4999431;28;20022;-80
2023/09/20 01:57:55;;;;;;;3.75;1.20;;;16.80;99.90;;;;;;5017559;28;20010;-82
2023/09/20 02:00:29;;;;;;;2.28;1.10;;;16.80;99.90;;;;;;5008718;28;20021;-80
2023/09/20 02:03:00;;;;;;;4.88;1.42;;;16.80;99.90;;;;;;5008787;28;20015;-80
2023/09/20 02:05:26;;;;;;;2.17;1.40;;;16.80;99.90;;;;;;5011773;28;20021;-83
2023/09/20 02:07:54;;;;;;;3.35;1.58;;;16.80;99.90;;;;;;5006091;28;20045;-81
2023/09/20 02:10:21;;;;;;;3.17;1.35;;;16.80;99.90;;;;;;5011521;28;20108;-80
2023/09/20 02:12:51;;;;;;;3.42;1.10;;;16.80;99.90;;;;;;5029969;28;20018;-82
2023/09/20 02:15:18;;;;;;;3.33;1.55;;;16.80;99.90;;;;;;5006748;28;20157;-85
2023/09/20 02:17:47;;;;;;;3.10;1.52;;;16.80;99.90;;;;;;5012108;28;20018;-81
2023/09/20 02:20:24;;;;;;;2.05;1.05;;;16.90;99.90;;;;;;5006042;28;20022;-82
2023/09/20 02:22:55;;;;;;;1.00;0.88;;;16.90;99.90;;;;;;5012042;28;20449;-81
2023/09/20 02:25:22;;;;;;;3.05;1.27;;;16.90;99.90;;;;;;5006602;28;20036;-80
2023/09/20 02:27:49;;;;;;;2.90;1.30;;;16.90;99.90;;;;;;5005999;28;20033;-80
2023/09/20 02:30:19;;;;;;;2.20;1.15;;;16.90;99.90;;;;;;5015180;28;20022;-80
2023/09/20 02:32:46;;;;;;;3.30;1.20;;;16.90;99.90;;;;;;5020491;28;20017;-82
2023/09/20 02:35:12;;;;;;;2.65;1.50;;;16.90;99.90;;;;;;5017037;28;20022;-81
2023/09/20 02:37:40;;;;;;;2.17;1.20;;;16.90;99.90;;;;;;5001965;28;20048;-83
2023/09/20 02:40:19;;;;;;;4.43;1.35;;;16.90;99.90;;;;;;5020951;28;20029;-79
2023/09/20 02:42:45;;;;;;;3.53;1.52;;;16.90;99.90;;;;;;5013923;28;20022;-83
2023/09/20 02:45:12;;;;;;;6.45;1.63;;;16.90;99.90;;;;;;5020898;28;20052;-80
2023/09/20 02:47:42;;;;;;;2.70;1.50;;;16.90;99.90;;;;;;5012016;28;20540;-81
2023/09/20 02:50:12;;;;;;;4.30;1.38;;;16.90;99.90;;;;;;5012178;28;20025;-82
2023/09/20 02:52:41;;;;;;;3.45;1.42;;;16.90;99.90;;;;;;5021287;28;20017;-82
2023/09/20 02:55:08;;;;;;;8.23;1.85;;;16.90;99.90;;;;;;5006221;28;20116;-81
2023/09/20 02:57:36;;;;;;;6.18;1.60;;;16.90;99.90;;;;;;5008125;28;20018;-81
2023/09/20 03:00:14;;;;;;;5.28;1.98;;;16.90;99.90;;;;;;5008900;28;20022;-82
2023/09/20 03:02:44;;;;;;;3.45;1.15;;;16.90;99.90;;;;;;5015622;28;20368;-81
2023/09/20 03:05:11;;;;;;;3.08;1.67;;;16.90;99.90;;;;;;5005715;28;20034;-82
2023/09/20 03:07:37;;;;;;;4.53;2.17;;;16.90;99.90;;;;;;5008113;28;20040;-81
2023/09/20 03:10:05;;;;;;;3.03;1.45;;;16.90;99.90;;;;;;5007679;28;20072;-82
2023/09/20 03:12:32;;;;;;;4.35;1.92;;;16.90;99.90;;;;;;5004377;28;20010;-81
2023/09/20 03:15:02;;;;;;;2.60;1.30;;;16.80;99.90;;;;;;5003938;28;20022;-81
2023/09/20 03:17:28;;;;;;;2.97;1.55;;;16.80;99.90;;;;;;4998243;28;20018;-80
2023/09/20 03:19:53;;;;;;;3.95;1.73;;;16.80;99.90;;;;;;5008063;28;20030;-80
2023/09/20 03:22:19;;;;;;;4.28;1.88;;;16.80;99.90;;;;;;5014888;28;20367;-81
2023/09/20 03:24:47;;;;;;;3.65;1.48;;;16.80;99.90;;;;;;5003685;28;20029;-82
2023/09/20 03:27:15;;;;;;;9.57;1.77;;;16.80;99.90;;;;;;5001662;28;20077;-82
2023/09/20 03:29:42;;;;;;;3.85;1.45;;;16.80;99.90;;;;;;5006368;28;20018;-81
2023/09/20 03:32:08;;;;;;;2.85;1.40;;;16.80;99.90;;;;;;5008241;28;20026;-80
2023/09/20 03:34:33;;;;;;;4.28;1.75;;;16.80;99.90;;;;;;5004109;28;20037;-81
2023/09/20 03:36:59;;;;;;;3.75;1.50;;;16.70;99.90;;;;;;5003517;28;20666;-82
2023/09/20 03:39:25;;;;;;;2.28;1.67;;;16.80;99.90;;;;;;5012394;28;20090;-81
2023/09/20 03:41:51;;;;;;;4.65;1.50;;;16.80;99.90;;;;;;5010669;28;20383;-82
2023/09/20 03:44:18;;;;;;;3.88;1.65;;;16.80;99.90;;;;;;5001819;28;20026;-81
2023/09/20 03:46:44;;;;;;;4.07;1.60;;;16.70;99.90;;;;;;5006579;28;20033;-82
2023/09/20 03:49:10;;;;;;;3.50;1.90;;;16.80;99.90;;;;;;5006362;28;20116;-81
2023/09/20 03:51:36;;;;;;;3.38;1.45;;;16.80;99.90;;;;;;5012102;28;20112;-80
2023/09/20 03:54:03;;;;;;;4.63;1.55;;;16.80;99.90;;;;;;5009039;28;20179;-82
2023/09/20 03:56:28;;;;;;;4.65;1.40;;;16.80;99.90;;;;;;5003469;28;20022;-85
2023/09/20 03:58:55;;;;;;;5.28;1.45;;;16.80;99.90;;;;;;5013447;28;20513;-80
2023/09/20 04:01:20;;;;;;;3.10;1.50;;;16.80;99.90;;;;;;5006814;28;20021;-81
2023/09/20 04:03:46;;;;;;;3.22;1.55;;;16.80;99.90;;;;;;4997595;28;20482;-81
2023/09/20 04:06:12;;;;;;;1.80;1.67;;;16.80;99.90;;;;;;5005759;28;20021;-81
2023/09/20 04:08:37;;;;;;;4.18;1.65;;;16.80;99.90;;;;;;5015528;28;20443;-81
2023/09/20 04:11:05;;;;;;;3.38;1.80;;;16.80;99.90;;;;;;5014546;28;20045;-81
2023/09/20 04:13:31;;;;;;;1.48;1.20;;;16.80;99.90;;;;;;5004154;28;20039;-81
2023/09/20 04:15:57;;;;;;;3.97;1.85;;;16.80;99.90;;;;;;5004062;28;20022;-82
2023/09/20 04:18:23;;;;;;;5.05;2.03;;;16.80;99.90;;;;;;5017408;28;20168;-80
2023/09/20 04:20:51;;;;;;;6.88;1.55;;;16.80;99.90;;;;;;5008679;28;20509;-81
2023/09/20 04:23:16;;;;;;;4.40;1.52;;;16.90;99.90;;;;;;5004657;28;20026;-80
2023/09/20 04:25:42;;;;;;;4.28;2.00;;;16.90;99.90;;;;;;4992310;28;20228;-81
2023/09/20 04:28:09;;;;;;;2.70;1.05;;;16.90;99.90;;;;;;5009423;28;20021;-82
2023/09/20 04:30:40;;;;;;;4.20;1.25;;;16.80;99.90;;;;;;5004415;28;20022;-81
2023/09/20 04:33:07;;;;;;;1.42;1.10;;;16.90;99.90;;;;;;5015305;28;20105;-82
2023/09/20 04:35:33;;;;;;;6.10;1.80;;;16.90;99.90;;;;;;5007109;28;20392;-81
2023/09/20 04:38:00;;;;;;;4.55;1.52;;;16.90;99.90;;;;;;5007467;28;20049;-82
2023/09/20 04:40:26;;;;;;;7.47;2.25;;;16.90;99.90;;;;;;5005097;28;20022;-81
2023/09/20 04:42:51;;;;;;;2.42;1.52;;;16.90;99.90;;;;;;5002752;28;20071;-81
2023/09/20 04:45:19;;;;;;;3.17;1.48;;;16.90;99.90;;;;;;5011800;28;20053;-81
2023/09/20 04:47:45;;;;;;;4.53;1.67;;;16.90;99.90;;;;;;5004381;28;20097;-82
2023/09/20 04:50:12;;;;;;;4.78;1.45;;;16.90;99.90;;;;;;5013345;28;20100;-80
2023/09/20 04:52:38;;;;;;;2.28;1.33;;;16.90;99.90;;;;;;5006319;28;20088;-81
2023/09/20 04:55:05;;;;;;;3.92;1.50;;;16.90;99.90;;;;;;5010602;28;21240;-81
2023/09/20 04:57:31;;;;;;;3.08;1.27;;;16.90;99.90;;;;;;4997981;28;20050;-82
2023/09/20 04:59:57;;;;;;;4.53;1.30;;;16.90;99.90;;;;;;4996591;28;20038;-81
2023/09/20 05:02:23;;;;;;;4.68;1.85;;;16.90;99.90;;;;;;4999272;28;20038;-80
2023/09/20 05:04:48;;;;;;;5.50;1.67;;;16.90;99.90;;;;;;5000240;28;20114;-81
2023/09/20 05:07:14;;;;;;;2.38;1.27;;;16.90;99.90;;;;;;5007677;28;20392;-80
2023/09/20 05:09:39;;;;;;;4.00;1.42;;;16.90;99.90;;;;;;5010715;28;20061;-81
2023/09/20 05:12:05;;;;;;;2.38;1.25;;;16.90;99.90;;;;;;5005735;28;20026;-81
2023/09/20 05:14:30;;;;;;;3.92;1.63;;;16.90;99.90;;;;;;5004562;28;20068;-82
2023/09/20 05:16:56;;;;;;;4.88;1.58;;;16.90;99.90;;;;;;5009159;28;20125;-82
2023/09/20 05:19:25;;;;;;;2.47;1.70;;;16.90;99.90;;;;;;5004032;28;20037;-81
2023/09/20 05:21:50;;;;;;;5.07;1.80;;;16.90;99.90;;;;;;5016504;28;20058;-81
2023/09/20 05:24:16;;;;;;;3.17;1.52;;;16.90;99.90;;;;;;5013161;28;20049;-83
2023/09/20 05:26:42;;;;;;;4.53;1.50;;;17.00;99.90;;;;;;5019527;28;20445;-80
2023/09/20 05:29:09;;;;;;;3.08;1.35;;;17.00;99.90;;;;;;5013529;28;20058;-81
2023/09/20 05:31:36;;;;;;;4.65;1.85;;;17.00;99.90;;;;;;5005210;28;20018;-81
2023/09/20 05:34:02;;;;;;;3.40;2.00;;;17.00;99.90;;;;;;5010701;28;20134;-80
2023/09/20 05:36:29;;;;;;;2.42;1.38;;;17.00;99.90;;;;;;5009945;28;20517;-80
2023/09/20 05:38:54;;;;;;;3.75;1.50;;;17.00;99.90;;;;;;5002079;28;20022;-80
2023/09/20 05:41:20;;;;;;;3.20;1.58;;;17.00;99.90;;;;;;5000258;28;20092;-84
2023/09/20 05:43:45;;;;;;;3.17;1.50;;;17.00;99.90;;;;;;5014009;28;20120;-81
2023/09/20 05:46:16;;;;;;;4.45;1.70;;;17.00;99.90;;;;;;5010942;28;20045;-80
2023/09/20 05:48:44;;;;;;;5.20;1.63;;;17.10;99.90;;;;;;4997245;28;20030;-80
2023/09/20 05:51:14;;;;;;;3.67;1.30;;;17.10;99.90;;;;;;5011061;28;20836;-80
2023/09/20 05:53:42;;;;;;;3.80;1.38;;;17.00;99.90;;;;;;5013672;28;20041;-81
2023/09/20 05:56:10;;;;;;;3.78;1.95;;;17.00;99.90;;;;;;5010819;28;20065;-80
2023/09/20 05:58:36;;;;;;;3.78;1.48;;;17.00;99.90;;;;;;5010494;28;20466;-82
2023/09/20 06:01:01;;;;;;;4.88;1.40;;;17.10;99.90;;;;;;5010194;28;20041;-81
2023/09/20 06:03:27;;;;;;;5.90;1.88;;;17.10;99.90;;;;;;5005260;28;20549;-81
2023/09/20 06:05:52;;;;;;;4.00;1.95;;;17.00;99.90;;;;;;5002729;28;20041;-80
2023/09/20 06:08:18;;;;;;;2.85;1.60;;;17.00;99.90;;;;;;5006188;28;20041;-82
2023/09/20 06:10:46;;;;;;;3.20;1.20;;;17.10;99.90;;;;;;5002608;28;20031;-80
2023/09/20 06:13:11;;;;;;;3.35;1.30;;;17.10;99.90;;;;;;5006965;28;20025;-79
2023/09/20 06:15:37;;;;;;;3.58;1.80;;;17.10;99.90;;;;;;5007413;28;20027;-81
2023/09/20 06:18:03;;;;;;;8.50;1.67;;;17.10;99.90;;;;;;5003297;28;20040;-80
2023/09/20 06:20:29;;;;;;;4.97;1.67;;;17.10;99.90;;;;;;5005775;28;20172;-80
2023/09/20 06:22:56;;;;;;;5.13;1.70;;;17.10;99.90;;;;;;5000962;28;20469;-81
2023/09/20 06:25:22;;;;;;;2.88;1.42;;;17.10;99.90;;;;;;5005517;28;20029;-80
2023/09/20 06:27:50;;;;;;;4.05;1.67;;;17.10;99.90;;;;;;5003467;28;20040;-80
2023/09/20 06:30:20;;;;;;;6.32;1.90;;;17.10;99.90;;;;;;5007981;28;20498;-80
2023/09/20 06:32:46;;;;;;;3.42;1.75;;;17.20;99.90;;;;;;5005593;28;20030;-82
2023/09/20 06:35:14;;;;;;;3.08;1.42;;;17.20;99.90;;;;;;5003888;28;20023;-80
2023/09/20 06:37:45;;;;;;;9.00;2.20;;;17.20;99.90;;;;;;5003434;28;20030;-80
2023/09/20 06:40:22;;;;;;;3.10;1.50;;;17.20;99.90;;;;;;5001301;28;20030;-79
2023/09/20 06:42:48;;;;;;;3.13;1.75;;;17.20;99.90;;;;;;5009576;28;20498;-80
2023/09/20 06:45:14;;;;;;;1.50;1.30;;;17.30;99.90;;;;;;5009461;28;20076;-80
2023/09/20 06:47:40;;;;;;;4.53;1.52;;;17.30;99.90;;;;;;5010588;28;20034;-80
2023/09/20 06:50:06;;;;;;;3.25;1.80;;;17.40;99.90;;;;;;5022479;28;20084;-80
2023/09/20 06:52:31;;;;;;;3.00;1.42;;;17.40;99.90;;;;;;5005253;28;20026;-80
2023/09/20 06:54:57;;;;;;;2.47;1.48;;;17.40;99.90;;;;;;5015914;28;20029;-80
2023/09/20 06:57:22;;;;;;;4.97;1.77;;;17.40;99.90;;;;;;5005378;28;20031;-81
2023/09/20 06:59:52;;;;;;;4.20;1.50;;;17.40;99.90;;;;;;5002561;28;20037;-80
2023/09/20 07:02:19;;;;;;;3.50;1.50;;;17.40;99.90;;;;;;5008942;28;20095;-80
2023/09/20 07:04:46;;;;;;;2.25;1.13;;;17.40;99.90;;;;;;4997115;28;20466;-80
2023/09/20 07:07:13;;;;;;;3.47;1.70;;;17.40;99.90;;;;;;5007597;28;20033;-80
2023/09/20 07:09:38;;;;;;;2.08;1.50;;;17.40;99.90;;;;;;5000145;28;20777;-81
2023/09/20 07:12:08;;;;;;;3.70;1.60;;;17.50;99.90;;;;;;5014682;28;20643;-82
2023/09/20 07:14:35;;;;;;;5.75;1.85;;;17.50;99.90;;;;;;4999217;28;20031;-80
2023/09/20 07:17:00;;;;;;;3.00;1.75;;;17.50;99.90;;;;;;5000161;28;20076;-79
2023/09/20 07:19:35;;;;;;;2.15;1.50;;;17.50;99.90;;;;;;4997169;28;20022;-81
2023/09/20 07:22:01;;;;;;;4.85;1.83;;;17.50;99.90;;;;;;5006538;28;20030;-80
2023/09/20 07:24:27;;;;;;;4.05;1.50;;;17.50;99.90;;;;;;5005434;28;20167;-80
2023/09/20 07:26:52;;;;;;;3.88;1.90;;;17.60;99.90;;;;;;4997204;28;20627;-81
2023/09/20 07:29:18;;;;;;;3.40;1.70;;;17.60;99.90;;;;;;4999013;28;20038;-79
2023/09/20 07:31:45;;;;;;;1.80;1.50;;;17.60;99.90;;;;;;4998871;28;20057;-80
2023/09/20 07:34:12;;;;;;;2.72;2.00;;;17.60;99.90;;;;;;5000098;28;20022;-79
2023/09/20 07:36:40;;;;;;;5.68;1.83;;;17.60;99.90;;;;;;5005221;28;20134;-80
2023/09/20 07:39:12;;;;;;;2.22;1.92;;;17.70;99.90;;;;;;5011478;28;20049;-81
2023/09/20 07:41:48;;;;;;;7.60;1.80;;;17.70;99.90;;;;;;5007077;28;20132;-80
2023/09/20 07:44:13;;;;;;;4.65;2.35;;;17.80;99.90;;;;;;5000211;28;20030;-81
2023/09/20 07:46:41;;;;;;;4.53;1.67;;;17.90;99.90;;;;;;5000313;28;20036;-80
2023/09/20 07:49:09;;;;;;;4.00;1.17;;;17.90;99.90;;;;;;5002815;28;20045;-80
2023/09/20 07:51:37;;;;;;;2.72;1.63;;;17.90;99.90;;;;;;5009938;28;20017;-81
2023/09/20 07:54:05;;;;;;;4.22;1.45;;;18.00;99.90;;;;;;5008285;28;20022;-83
2023/09/20 07:56:30;;;;;;;5.70;2.10;;;18.00;99.90;;;;;;5009669;28;20508;-81
2023/09/20 07:58:56;;;;;;;4.32;1.50;;;18.00;99.90;;;;;;5008749;28;20040;-81
2023/09/20 08:01:24;;;;;;;2.05;1.55;;;18.00;99.90;;;;;;5001290;28;20030;-81
2023/09/20 08:03:53;;;;;;;3.88;1.60;;;18.10;99.90;;;;;;4998446;28;20363;-80
2023/09/20 08:06:23;;;;;;;2.05;1.27;;;18.10;99.90;;;;;;5005718;28;20041;-79
2023/09/20 08:08:49;;;;;;;3.40;1.95;;;18.10;99.90;;;;;;4996530;28;20037;-82
2023/09/20 08:11:14;;;;;;;2.78;1.92;;;18.10;99.90;;;;;;4998349;28;20466;-80
2023/09/20 08:13:40;;;;;;;4.47;1.60;;;18.20;99.90;;;;;;5006844;28;20019;-80
2023/09/20 08:16:09;;;;;;;4.57;2.08;;;18.20;99.90;;;;;;5007528;28;20025;-81
2023/09/20 08:21:20;;;;;;;3.05;1.58;;;18.30;99.90;;;;;;5004969;28;20102;-82
2023/09/20 08:59:50;;;;;;;3.95;1.50;;;19.30;99.90;;;;;;5013406;28;20088;-82
2023/09/20 09:02:17;;;;;;;3.72;1.80;;;19.40;99.90;;;;;;5008365;28;20136;-80
2023/09/20 09:04:56;;;;;;;4.43;1.35;;;19.40;99.90;;;;;;5008904;28;20026;-80
2023/09/20 09:07:25;;;;;;;3.45;1.40;;;19.40;99.90;;;;;;5008190;28;20028;-82
2023/09/20 09:09:52;;;;;;;5.25;1.73;;;19.40;99.90;;;;;;5002391;28;20367;-81
2023/09/20 09:12:18;;;;;;;2.88;1.63;;;19.40;99.90;;;;;;5009193;28;20033;-82
2023/09/20 09:14:46;;;;;;;3.47;1.48;;;19.50;99.90;;;;;;5017614;28;20053;-82
2023/09/20 09:17:12;;;;;;;3.65;1.27;;;19.50;99.90;;;;;;5009453;28;20037;-79
2023/09/20 09:19:38;;;;;;;1.85;1.23;;;19.60;99.90;;;;;;5007017;28;20036;-79
2023/09/20 09:22:04;;;;;;;2.20;1.45;;;19.60;99.90;;;;;;5011275;28;20053;-83
2023/09/20 09:24:47;;;;;;;3.90;1.25;;;19.70;99.90;;;;;;5010201;28;20116;-80
2023/09/20 09:27:15;;;;;;;4.97;1.73;;;19.80;99.90;;;;;;4994512;28;20041;-80
2023/09/20 09:29:43;;;;;;;3.47;1.65;;;19.80;99.90;;;;;;5010626;28;20354;-80
2023/09/20 09:32:08;;;;;;;2.78;1.33;;;19.80;99.90;;;;;;5001634;28;20036;-81
2023/09/20 09:34:34;;;;;;;4.47;1.48;;;19.80;99.90;;;;;;5012187;28;20018;-81
2023/09/20 09:37:00;;;;;;;3.38;1.63;;;19.80;99.90;;;;;;5002751;28;20054;-80
2023/09/20 09:39:26;;;;;;;3.83;1.15;;;19.80;99.90;;;;;;4999450;28;20030;-79
2023/09/20 09:41:52;;;;;;;4.88;1.70;;;19.80;99.90;;;;;;5003369;28;20045;-81
2023/09/20 09:44:19;;;;;;;3.75;1.08;;;19.90;99.90;;;;;;5002380;28;20129;-79
2023/09/20 09:46:44;;;;;;;1.45;1.17;;;19.90;99.90;;;;;;5006228;28;20023;-82
2023/09/20 09:49:18;;;;;;;3.80;1.17;;;19.90;99.90;;;;;;5006639;28;20503;-80
2023/09/20 09:51:52;;;;;;;3.13;1.70;;;19.90;99.90;;;;;;5000257;28;20613;-83
2023/09/20 09:54:19;;;;;;;2.70;1.48;;;19.90;99.90;;;;;;5000658;28;20017;-81
2023/09/20 09:56:46;;;;;;;2.05;1.20;;;20.00;99.90;;;;;;5005961;28;20025;-85
2023/09/20 09:59:11;;;;;;;2.20;1.02;;;20.00;99.90;;;;;;5008306;28;20049;-81
2023/09/20 10:01:39;;;;;;;3.90;1.77;;;20.10;99.90;;;;;;5008100;28;20053;-79
2023/09/20 10:04:10;;;;;;;4.45;1.45;;;20.20;99.90;;;;;;5002623;28;20109;-80
2023/09/20 10:06:47;;;;;;;3.25;1.35;;;20.20;99.90;;;;;;5008130;28;20034;-80
2023/09/20 10:09:17;;;;;;;4.05;1.40;;;20.30;99.90;;;;;;4998885;28;20458;-80
2023/09/20 10:11:43;;;;;;;2.13;1.42;;;20.30;99.90;;;;;;5004807;28;20014;-80
2023/09/20 10:14:10;;;;;;;1.83;1.20;;;20.30;99.90;;;;;;5007450;28;20033;-80
2023/09/20 10:16:42;;;;;;;2.17;1.33;;;20.30;99.90;;;;;;5005574;28;20034;-78
2023/09/20 10:19:10;;;;;;;1.17;1.08;;;20.30;99.90;;;;;;5010661;28;20037;-82
2023/09/20 10:21:37;;;;;;;4.20;1.30;;;20.30;99.90;;;;;;5015862;28;20060;-79
2023/09/20 10:24:07;;;;;;;4.45;1.60;;;20.30;99.90;;;;;;5009655;28;20029;-82
2023/09/20 10:26:35;;;;;;;4.35;1.52;;;20.30;99.90;;;;;;5014264;28;20026;-82
2023/09/20 10:29:26;;;;;;;1.92;1.00;;;20.30;99.90;;;;;;5008583;28;20029;-80
2023/09/20 10:32:17;;;;;;;3.28;1.40;;;20.40;99.90;;;;;;5010534;28;20017;-79
2023/09/20 10:35:27;;;;;;;2.10;1.17;;;20.40;99.90;;;;;;5005959;28;20608;-81
2023/09/20 10:38:08;;;;;;;2.90;1.70;;;20.50;99.90;;;;;;5006111;28;20129;-79
2023/09/20 10:40:46;;;;;;;2.90;1.70;;;20.60;99.90;;;;;;5009953;28;20410;-82
2023/09/20 10:43:15;;;;;;;1.77;1.20;;;20.70;99.90;;;;;;5000946;28;20025;-80
2023/09/20 10:45:49;;;;;;;1.95;1.67;;;20.80;99.90;;;;;;5004970;28;20026;-80
2023/09/20 10:48:18;;;;;;;3.03;1.70;;;20.80;99.90;;;;;;4999529;28;20023;-81
2023/09/20 10:50:53;;;;;;;3.20;1.75;;;20.90;99.90;;;;;;5000901;28;20031;-85
2023/09/20 10:53:22;;;;;;;;;;;20.90;99.90;;;;;;4999059;28;20032;-81
2023/09/20 10:55:49;;;;;;;3.33;1.50;;;20.90;99.90;;;;;;4999831;28;19906;-80
2023/09/20 10:58:18;;;;;;;3.88;1.42;;;20.80;99.90;;;;;;5011147;28;20029;-82
2023/09/20 11:00:44;;;;;;;3.20;1.55;;;20.90;99.90;;;;;;5008452;28;20030;-80
2023/09/20 11:03:11;;;;;;;2.58;1.60;;;20.90;99.90;;;;;;5000841;28;20017;-80
2023/09/20 11:05:38;;;;;;;1.17;1.02;;;20.90;99.90;;;;;;5010311;28;20780;-79
2023/09/20 11:08:08;;;;;;;3.25;1.52;;;20.90;99.90;;;;;;5013549;28;20034;-79
2023/09/20 11:10:35;;;;;;;3.30;1.30;;;20.90;99.90;;;;;;5013073;28;20024;-79
2023/09/20 11:13:06;;;;;;;5.53;1.73;;;20.90;99.90;;;;;;5009023;28;20022;-78
2023/09/20 11:15:40;;;;;;;6.10;2.20;;;20.90;99.90;;;;;;5010391;28;20060;-82
2023/09/20 11:18:06;;;;;;;2.88;1.80;;;21.10;99.90;;;;;;5008395;28;20022;-78
2023/09/20 11:20:32;;;;;;;2.30;1.40;;;21.20;99.90;;;;;;4994809;28;20070;-79
2023/09/20 11:22:58;;;;;;;3.40;1.95;;;21.30;99.90;;;;;;5007691;28;20057;-80
2023/09/20 11:25:23;;;;;;;3.92;1.83;;;21.30;99.90;;;;;;5013072;28;20042;-80
2023/09/20 11:27:49;;;;;;;3.05;1.70;;;21.30;99.90;;;;;;5012212;28;20419;-83
2023/09/20 11:30:15;;;;;;;4.05;1.52;;;21.40;99.90;;;;;;5000200;28;20323;-80
2023/09/20 11:32:41;;;;;;;5.70;1.60;;;21.40;99.90;;;;;;5014327;28;20026;-82
2023/09/20 11:35:07;;;;;;;3.88;1.85;;;21.40;99.90;;;;;;5010040;28;20042;-80
2023/09/20 11:37:35;;;;;;;4.10;1.88;;;21.40;99.90;;;;;;5016842;28;20548;-80
2023/09/20 11:40:04;;;;;;;2.35;1.70;;;21.40;99.90;;;;;;5016119;28;20100;-79
2023/09/20 11:42:32;;;;;;;3.67;2.03;;;21.50;99.90;;;;;;5019268;28;20049;-80
2023/09/20 11:45:03;;;;;;;4.82;1.75;;;21.50;99.90;;;;;;5013653;28;20088;-77
2023/09/20 11:47:34;;;;;;;4.47;1.77;;;21.60;99.90;;;;;;4999994;28;20014;-83
2023/09/20 11:50:00;;;;;;;6.72;2.10;;;21.70;99.90;;;;;;4998843;28;20022;-79
2023/09/20 11:52:27;;;;;;;4.68;1.98;;;21.70;99.90;;;;;;5004274;28;20431;-79
2023/09/20 11:54:59;;;;;;;4.07;2.38;;;21.80;99.90;;;;;;4994488;28;20691;-79
2023/09/20 11:57:28;;;;;;;3.13;1.50;;;21.90;99.90;;;;;;5014969;28;20083;-79
2023/09/20 11:59:54;;;;;;;5.97;2.15;;;22.00;99.90;;;;;;4998631;28;20117;-81
2023/09/20 12:02:20;;;;;;;2.90;2.13;;;22.00;99.90;;;;;;5006735;28;20045;-82
2023/09/20 12:04:48;;;;;;;3.08;1.85;;;22.10;99.90;;;;;;5013239;28;20078;-79
2023/09/20 12:07:13;;;;;;;2.58;1.77;;;22.10;99.90;;;;;;4997252;28;20534;-80
2023/09/20 12:09:39;;;;;;;3.95;2.00;;;22.10;99.90;;;;;;4994118;28;20054;-81
2023/09/20 12:12:05;;;;;;;2.85;1.77;;;22.10;99.90;;;;;;5002608;28;20034;-82
2023/09/20 12:14:33;;;;;;;3.15;1.98;;;22.10;99.90;;;;;;5006990;28;20105;-79
2023/09/20 12:16:59;;;;;;;4.60;1.70;;;22.00;99.90;;;;;;5009951;28;20344;-79
2023/09/20 12:19:25;;;;;;;6.53;1.98;;;22.00;99.90;;;;;;5022407;28;20105;-82
2023/09/20 12:21:51;;;;;;;4.00;1.92;;;22.00;99.90;;;;;;5011133;28;20048;-83
2023/09/20 12:24:17;;;;;;;4.43;2.00;;;21.90;99.90;;;;;;5012688;28;20064;-82
2023/09/20 12:26:42;;;;;;;4.85;2.03;;;22.00;99.90;;;;;;5011164;28;20094;-80
2023/09/20 12:29:08;;;;;;;4.45;1.92;;;21.90;99.90;;;;;;5016688;28;20022;-80
2023/09/20 12:31:34;;;;;;;3.95;1.77;;;22.00;99.90;;;;;;5019120;28;20072;-81
2023/09/20 12:34:02;;;;;;;2.53;1.88;;;21.90;99.90;;;;;;5014876;28;20084;-82
2023/09/20 12:36:29;;;;;;;3.20;1.80;;;22.00;99.90;;;;;;5006826;28;20026;-82
2023/09/20 12:38:55;;;;;;;3.20;1.67;;;22.00;99.90;;;;;;4999691;28;20038;-83
2023/09/20 12:41:21;;;;;;;7.22;2.50;;;22.00;99.90;;;;;;4994232;28;20088;-80
2023/09/20 12:43:49;;;;;;;3.55;1.98;;;22.00;99.90;;;;;;5008340;28;20034;-82
2023/09/20 12:46:15;;;;;;;2.22;1.50;;;21.90;99.90;;;;;;5008152;28;20099;-80
2023/09/20 12:48:42;;;;;;;4.45;2.05;;;21.90;99.90;;;;;;5016302;28;20712;-80
2023/09/20 12:51:07;;;;;;;2.33;1.70;;;21.90;99.90;;;;;;5008573;28;20026;-81
2023/09/20 12:53:33;;;;;;;3.15;1.85;;;21.90;99.90;;;;;;5011799;28;20025;-80
2023/09/20 12:56:00;;;;;;;3.55;2.17;;;21.90;99.90;;;;;;5004471;28;20025;-79
2023/09/20 12:58:26;;;;;;;4.18;1.95;;;21.90;99.90;;;;;;4997883;28;20685;-82
2023/09/20 13:00:51;;;;;;;2.75;1.85;;;22.00;99.90;;;;;;5005356;28;20042;-78
2023/09/20 13:03:17;;;;;;;5.40;2.13;;;21.90;99.90;;;;;;5001481;28;20342;-81
2023/09/20 13:05:44;;;;;;;4.35;2.20;;;21.90;99.90;;;;;;4999057;28;20116;-79
2023/09/20 13:08:19;;;;;;;3.67;1.50;;;21.80;99.90;;;;;;4995223;28;20033;-79
2023/09/20 13:10:44;;;;;;;4.28;1.90;;;21.80;99.90;;;;;;4997729;28;20035;-78
2023/09/20 13:13:10;;;;;;;4.00;2.15;;;21.80;99.90;;;;;;5005065;28;20030;-80
2023/09/20 13:15:42;;;;;;;3.78;2.03;;;21.80;99.90;;;;;;4997257;28;20038;-79
2023/09/20 13:18:09;;;;;;;4.85;2.47;;;21.80;99.90;;;;;;5005658;28;20079;-78
2023/09/20 13:20:37;;;;;;;5.18;1.90;;;21.80;99.90;;;;;;5008964;28;20014;-78
2023/09/20 13:23:05;;;;;;;4.28;1.90;;;21.80;99.90;;;;;;4999903;28;20022;-78
2023/09/20 13:25:32;;;;;;;4.30;2.08;;;21.70;99.90;;;;;;5005037;28;20093;-80
2023/09/20 13:27:57;;;;;;;3.85;1.98;;;21.70;99.90;;;;;;5000807;28;20065;-79
2023/09/20 13:30:24;;;;;;;2.53;1.70;;;21.60;99.90;;;;;;5003896;28;20026;-80